Weather at Moss Airport, Rygge

Public forecast

Using degrees Celsius for public forecast. Weather courtesy of forecast.io.

Current aviation weather report (METAR) for Moss Airport, Rygge

Retrieved 2020/11/27 03:20 UTC (2 hours ago):

ENRY 270320Z AUTO VRB02KT 9999NDV NCD M03/M04 Q1019

Aviation forecast (TAF) for Moss Airport, Rygge

Retrieved 2020-11-27 00:00 UTC (5 hours ago):

TAF TAF ENRY 262300Z 2700/2724 03005KT CAVOK PROB40 2703/2712 2000 BCFG BKN002 PROB40 2715/2724 0500 FZFG VV002